sensor_id;sensor_type;location;lat;lon;timestamp;P1;durP1;ratioP1;P2;durP2;ratioP2
13568;SDS011;6856;51.460;7.158;2022-09-24T00:00:24;4.43;;;2.90;;
13568;SDS011;6856;51.460;7.158;2022-09-24T00:02:57;7.37;;;3.60;;
13568;SDS011;6856;51.460;7.158;2022-09-24T00:05:35;4.93;;;3.23;;
13568;SDS011;6856;51.460;7.158;2022-09-24T00:08:10;5.20;;;3.70;;
13568;SDS011;6856;51.460;7.158;2022-09-24T00:10:45;5.23;;;3.57;;
13568;SDS011;6856;51.460;7.158;2022-09-24T00:13:21;5.83;;;3.67;;
13568;SDS011;6856;51.460;7.158;2022-09-24T00:15:55;4.77;;;3.43;;
13568;SDS011;6856;51.460;7.158;2022-09-24T00:18:32;5.13;;;3.33;;
13568;SDS011;6856;51.460;7.158;2022-09-24T00:21:10;5.33;;;3.57;;
13568;SDS011;6856;51.460;7.158;2022-09-24T00:23:47;5.07;;;3.33;;
13568;SDS011;6856;51.460;7.158;2022-09-24T00:26:23;6.63;;;4.47;;
13568;SDS011;6856;51.460;7.158;2022-09-24T00:29:17;4.00;;;3.13;;
13568;SDS011;6856;51.460;7.158;2022-09-24T00:31:53;5.10;;;3.47;;
13568;SDS011;6856;51.460;7.158;2022-09-24T00:34:27;4.60;;;3.30;;
13568;SDS011;6856;51.460;7.158;2022-09-24T00:37:01;4.77;;;3.50;;
13568;SDS011;6856;51.460;7.158;2022-09-24T00:39:35;4.80;;;3.63;;
13568;SDS011;6856;51.460;7.158;2022-09-24T00:42:08;5.03;;;3.57;;
13568;SDS011;6856;51.460;7.158;2022-09-24T00:44:54;6.40;;;3.47;;
13568;SDS011;6856;51.460;7.158;2022-09-24T00:47:29;4.70;;;3.43;;
13568;SDS011;6856;51.460;7.158;2022-09-24T00:50:14;5.30;;;3.60;;
13568;SDS011;6856;51.460;7.158;2022-09-24T00:52:53;5.37;;;3.13;;
13568;SDS011;6856;51.460;7.158;2022-09-24T00:55:30;4.60;;;3.60;;
13568;SDS011;6856;51.460;7.158;2022-09-24T00:58:09;4.23;;;3.37;;
13568;SDS011;6856;51.460;7.158;2022-09-24T01:00:46;3.77;;;2.83;;
13568;SDS011;6856;51.460;7.158;2022-09-24T01:03:23;4.73;;;2.93;;
13568;SDS011;6856;51.460;7.158;2022-09-24T01:05:58;4.67;;;3.23;;
13568;SDS011;6856;51.460;7.158;2022-09-24T01:08:32;6.07;;;3.97;;
13568;SDS011;6856;51.460;7.158;2022-09-24T01:11:10;6.40;;;4.00;;
13568;SDS011;6856;51.460;7.158;2022-09-24T01:14:03;5.37;;;4.03;;
13568;SDS011;6856;51.460;7.158;2022-09-24T01:17:07;6.60;;;4.13;;
13568;SDS011;6856;51.460;7.158;2022-09-24T01:20:07;5.83;;;3.83;;
13568;SDS011;6856;51.460;7.158;2022-09-24T01:27:10;4.47;;;3.10;;
13568;SDS011;6856;51.460;7.158;2022-09-24T01:29:58;4.43;;;2.87;;
13568;SDS011;6856;51.460;7.158;2022-09-24T01:32:39;5.57;;;4.10;;
13568;SDS011;6856;51.460;7.158;2022-09-24T01:35:17;6.20;;;4.07;;
13568;SDS011;6856;51.460;7.158;2022-09-24T01:37:56;5.90;;;4.57;;
13568;SDS011;6856;51.460;7.158;2022-09-24T01:40:33;5.53;;;4.20;;
13568;SDS011;6856;51.460;7.158;2022-09-24T01:43:10;7.97;;;4.97;;
13568;SDS011;6856;51.460;7.158;2022-09-24T01:45:47;5.57;;;4.07;;
13568;SDS011;6856;51.460;7.158;2022-09-24T01:48:21;6.50;;;5.07;;
13568;SDS011;6856;51.460;7.158;2022-09-24T01:50:56;7.20;;;4.97;;
13568;SDS011;6856;51.460;7.158;2022-09-24T01:53:39;7.00;;;5.20;;
13568;SDS011;6856;51.460;7.158;2022-09-24T01:56:17;5.70;;;3.57;;
13568;SDS011;6856;51.460;7.158;2022-09-24T01:59:00;5.00;;;3.90;;
13568;SDS011;6856;51.460;7.158;2022-09-24T02:01:41;5.73;;;4.50;;
13568;SDS011;6856;51.460;7.158;2022-09-24T02:04:21;5.17;;;3.97;;
13568;SDS011;6856;51.460;7.158;2022-09-24T02:07:00;5.73;;;4.10;;
13568;SDS011;6856;51.460;7.158;2022-09-24T02:09:42;4.70;;;3.40;;
13568;SDS011;6856;51.460;7.158;2022-09-24T02:12:17;6.30;;;4.57;;
13568;SDS011;6856;51.460;7.158;2022-09-24T02:15:00;6.53;;;4.43;;
13568;SDS011;6856;51.460;7.158;2022-09-24T02:17:45;7.57;;;4.20;;
13568;SDS011;6856;51.460;7.158;2022-09-24T02:20:26;5.73;;;4.23;;
13568;SDS011;6856;51.460;7.158;2022-09-24T02:23:02;5.47;;;4.17;;
13568;SDS011;6856;51.460;7.158;2022-09-24T02:25:41;5.40;;;4.33;;
13568;SDS011;6856;51.460;7.158;2022-09-24T02:28:20;7.10;;;4.50;;
13568;SDS011;6856;51.460;7.158;2022-09-24T02:30:55;6.30;;;4.03;;
13568;SDS011;6856;51.460;7.158;2022-09-24T02:33:37;5.80;;;3.97;;
13568;SDS011;6856;51.460;7.158;2022-09-24T02:36:34;5.93;;;3.77;;
13568;SDS011;6856;51.460;7.158;2022-09-24T02:39:09;5.63;;;4.33;;
13568;SDS011;6856;51.460;7.158;2022-09-24T02:41:43;5.53;;;3.77;;
13568;SDS011;6856;51.460;7.158;2022-09-24T02:44:19;5.80;;;4.73;;
13568;SDS011;6856;51.460;7.158;2022-09-24T02:46:53;6.30;;;5.33;;
13568;SDS011;6856;51.460;7.158;2022-09-24T02:49:28;6.80;;;5.23;;
13568;SDS011;6856;51.460;7.158;2022-09-24T02:52:02;6.57;;;5.00;;
13568;SDS011;6856;51.460;7.158;2022-09-24T02:54:36;6.30;;;4.27;;
13568;SDS011;6856;51.460;7.158;2022-09-24T02:57:09;5.80;;;4.77;;
13568;SDS011;6856;51.460;7.158;2022-09-24T02:59:42;8.83;;;5.43;;
13568;SDS011;6856;51.460;7.158;2022-09-24T03:02:16;6.90;;;5.27;;
13568;SDS011;6856;51.460;7.158;2022-09-24T03:04:51;6.80;;;5.07;;
13568;SDS011;6856;51.460;7.158;2022-09-24T03:07:24;6.93;;;4.53;;
13568;SDS011;6856;51.460;7.158;2022-09-24T03:09:58;7.10;;;4.90;;
13568;SDS011;6856;51.460;7.158;2022-09-24T03:12:31;6.03;;;4.83;;
13568;SDS011;6856;51.460;7.158;2022-09-24T03:15:05;7.10;;;5.53;;
13568;SDS011;6856;51.460;7.158;2022-09-24T03:17:39;7.17;;;5.83;;
13568;SDS011;6856;51.460;7.158;2022-09-24T03:20:14;8.70;;;6.80;;
13568;SDS011;6856;51.460;7.158;2022-09-24T03:22:48;7.97;;;6.43;;
13568;SDS011;6856;51.460;7.158;2022-09-24T03:25:22;7.93;;;6.63;;
13568;SDS011;6856;51.460;7.158;2022-09-24T03:27:57;9.03;;;7.40;;
13568;SDS011;6856;51.460;7.158;2022-09-24T03:30:30;8.20;;;7.30;;
13568;SDS011;6856;51.460;7.158;2022-09-24T03:33:21;8.67;;;7.00;;
13568;SDS011;6856;51.460;7.158;2022-09-24T03:35:57;8.97;;;7.47;;
13568;SDS011;6856;51.460;7.158;2022-09-24T03:38:32;14.30;;;7.60;;
13568;SDS011;6856;51.460;7.158;2022-09-24T03:41:06;7.70;;;6.67;;
13568;SDS011;6856;51.460;7.158;2022-09-24T03:43:41;9.67;;;7.37;;
13568;SDS011;6856;51.460;7.158;2022-09-24T03:46:15;8.00;;;7.13;;
13568;SDS011;6856;51.460;7.158;2022-09-24T03:48:49;9.87;;;7.93;;
13568;SDS011;6856;51.460;7.158;2022-09-24T03:51:24;9.27;;;6.70;;
13568;SDS011;6856;51.460;7.158;2022-09-24T03:53:57;8.13;;;7.13;;
13568;SDS011;6856;51.460;7.158;2022-09-24T03:56:31;7.43;;;6.27;;
13568;SDS011;6856;51.460;7.158;2022-09-24T03:59:04;9.10;;;6.90;;
13568;SDS011;6856;51.460;7.158;2022-09-24T04:01:38;9.00;;;6.47;;
13568;SDS011;6856;51.460;7.158;2022-09-24T04:04:12;8.20;;;6.67;;
13568;SDS011;6856;51.460;7.158;2022-09-24T04:06:48;7.90;;;6.63;;
13568;SDS011;6856;51.460;7.158;2022-09-24T04:09:23;8.10;;;6.27;;
13568;SDS011;6856;51.460;7.158;2022-09-24T04:11:56;9.30;;;6.40;;
13568;SDS011;6856;51.460;7.158;2022-09-24T04:14:38;5.97;;;5.13;;
13568;SDS011;6856;51.460;7.158;2022-09-24T04:17:11;7.20;;;5.53;;
13568;SDS011;6856;51.460;7.158;2022-09-24T04:19:47;9.90;;;6.47;;
13568;SDS011;6856;51.460;7.158;2022-09-24T04:22:23;8.00;;;6.17;;
13568;SDS011;6856;51.460;7.158;2022-09-24T04:24:59;8.20;;;6.40;;
13568;SDS011;6856;51.460;7.158;2022-09-24T04:27:34;8.43;;;5.60;;
13568;SDS011;6856;51.460;7.158;2022-09-24T04:30:07;8.30;;;5.90;;
13568;SDS011;6856;51.460;7.158;2022-09-24T04:32:43;7.37;;;5.80;;
13568;SDS011;6856;51.460;7.158;2022-09-24T04:35:16;7.73;;;5.10;;
13568;SDS011;6856;51.460;7.158;2022-09-24T04:37:51;7.50;;;5.67;;
13568;SDS011;6856;51.460;7.158;2022-09-24T04:40:25;6.63;;;5.30;;
13568;SDS011;6856;51.460;7.158;2022-09-24T04:43:01;8.70;;;6.23;;
13568;SDS011;6856;51.460;7.158;2022-09-24T04:45:36;6.73;;;5.03;;
13568;SDS011;6856;51.460;7.158;2022-09-24T04:48:09;8.07;;;6.00;;
13568;SDS011;6856;51.460;7.158;2022-09-24T04:50:43;6.87;;;5.43;;
13568;SDS011;6856;51.460;7.158;2022-09-24T04:53:18;6.97;;;5.80;;
13568;SDS011;6856;51.460;7.158;2022-09-24T04:55:52;7.90;;;5.80;;
13568;SDS011;6856;51.460;7.158;2022-09-24T04:58:25;6.90;;;6.03;;
13568;SDS011;6856;51.460;7.158;2022-09-24T05:01:00;7.43;;;5.67;;
13568;SDS011;6856;51.460;7.158;2022-09-24T05:03:35;6.77;;;6.00;;
13568;SDS011;6856;51.460;7.158;2022-09-24T05:06:08;6.97;;;5.23;;
13568;SDS011;6856;51.460;7.158;2022-09-24T05:08:43;7.20;;;5.80;;
13568;SDS011;6856;51.460;7.158;2022-09-24T05:11:16;7.23;;;5.47;;
13568;SDS011;6856;51.460;7.158;2022-09-24T05:13:50;7.33;;;6.03;;
13568;SDS011;6856;51.460;7.158;2022-09-24T05:16:23;7.40;;;5.57;;
13568;SDS011;6856;51.460;7.158;2022-09-24T05:18:57;6.80;;;5.20;;
13568;SDS011;6856;51.460;7.158;2022-09-24T05:21:31;7.83;;;5.13;;
13568;SDS011;6856;51.460;7.158;2022-09-24T05:24:06;6.63;;;5.03;;
13568;SDS011;6856;51.460;7.158;2022-09-24T05:26:40;6.57;;;4.97;;
13568;SDS011;6856;51.460;7.158;2022-09-24T05:29:31;5.93;;;5.23;;
13568;SDS011;6856;51.460;7.158;2022-09-24T05:32:05;8.00;;;5.43;;
13568;SDS011;6856;51.460;7.158;2022-09-24T05:34:41;7.53;;;5.63;;
13568;SDS011;6856;51.460;7.158;2022-09-24T05:37:16;6.87;;;4.93;;
13568;SDS011;6856;51.460;7.158;2022-09-24T05:39:51;6.00;;;5.10;;
13568;SDS011;6856;51.460;7.158;2022-09-24T05:42:25;5.83;;;5.10;;
13568;SDS011;6856;51.460;7.158;2022-09-24T05:44:58;9.37;;;6.13;;
13568;SDS011;6856;51.460;7.158;2022-09-24T05:47:32;8.17;;;6.57;;
13568;SDS011;6856;51.460;7.158;2022-09-24T05:50:06;8.33;;;6.20;;
13568;SDS011;6856;51.460;7.158;2022-09-24T05:52:39;7.07;;;5.97;;
13568;SDS011;6856;51.460;7.158;2022-09-24T05:55:15;7.73;;;6.33;;
13568;SDS011;6856;51.460;7.158;2022-09-24T05:57:48;7.67;;;6.47;;
13568;SDS011;6856;51.460;7.158;2022-09-24T06:00:22;7.20;;;5.93;;
13568;SDS011;6856;51.460;7.158;2022-09-24T06:02:59;9.53;;;6.70;;
13568;SDS011;6856;51.460;7.158;2022-09-24T06:05:36;8.37;;;6.53;;
13568;SDS011;6856;51.460;7.158;2022-09-24T06:08:09;7.47;;;6.07;;
13568;SDS011;6856;51.460;7.158;2022-09-24T06:10:44;8.23;;;6.60;;
13568;SDS011;6856;51.460;7.158;2022-09-24T06:13:18;7.07;;;5.83;;
13568;SDS011;6856;51.460;7.158;2022-09-24T06:15:58;7.93;;;5.93;;
13568;SDS011;6856;51.460;7.158;2022-09-24T06:18:33;8.73;;;5.97;;
13568;SDS011;6856;51.460;7.158;2022-09-24T06:21:09;8.90;;;6.73;;
13568;SDS011;6856;51.460;7.158;2022-09-24T06:23:44;8.57;;;6.43;;
13568;SDS011;6856;51.460;7.158;2022-09-24T06:26:21;8.60;;;6.37;;
13568;SDS011;6856;51.460;7.158;2022-09-24T06:28:56;8.80;;;5.87;;
13568;SDS011;6856;51.460;7.158;2022-09-24T06:31:35;8.07;;;6.00;;
13568;SDS011;6856;51.460;7.158;2022-09-24T06:34:08;7.47;;;5.83;;
13568;SDS011;6856;51.460;7.158;2022-09-24T06:36:42;7.10;;;6.00;;
13568;SDS011;6856;51.460;7.158;2022-09-24T06:39:15;6.77;;;5.93;;
13568;SDS011;6856;51.460;7.158;2022-09-24T06:41:50;7.60;;;6.43;;
13568;SDS011;6856;51.460;7.158;2022-09-24T06:44:23;8.50;;;6.40;;
13568;SDS011;6856;51.460;7.158;2022-09-24T06:46:57;6.80;;;5.03;;
13568;SDS011;6856;51.460;7.158;2022-09-24T06:49:31;7.87;;;6.17;;
13568;SDS011;6856;51.460;7.158;2022-09-24T06:52:05;8.03;;;6.37;;
13568;SDS011;6856;51.460;7.158;2022-09-24T06:54:38;7.50;;;6.23;;
13568;SDS011;6856;51.460;7.158;2022-09-24T06:57:13;7.07;;;6.13;;
13568;SDS011;6856;51.460;7.158;2022-09-24T06:59:46;7.90;;;6.40;;
13568;SDS011;6856;51.460;7.158;2022-09-24T07:02:21;8.37;;;6.53;;
13568;SDS011;6856;51.460;7.158;2022-09-24T07:04:55;8.60;;;6.63;;
13568;SDS011;6856;51.460;7.158;2022-09-24T07:07:29;9.60;;;6.63;;
13568;SDS011;6856;51.460;7.158;2022-09-24T07:10:04;7.97;;;6.67;;
13568;SDS011;6856;51.460;7.158;2022-09-24T07:12:40;8.17;;;5.63;;
13568;SDS011;6856;51.460;7.158;2022-09-24T07:15:14;8.10;;;5.93;;
13568;SDS011;6856;51.460;7.158;2022-09-24T07:17:47;7.90;;;6.07;;
13568;SDS011;6856;51.460;7.158;2022-09-24T07:20:21;8.00;;;6.17;;
13568;SDS011;6856;51.460;7.158;2022-09-24T07:22:55;10.03;;;6.33;;
13568;SDS011;6856;51.460;7.158;2022-09-24T07:25:28;9.23;;;6.73;;
13568;SDS011;6856;51.460;7.158;2022-09-24T07:28:03;7.93;;;6.43;;
13568;SDS011;6856;51.460;7.158;2022-09-24T07:30:40;9.80;;;7.07;;
13568;SDS011;6856;51.460;7.158;2022-09-24T07:33:14;9.03;;;6.73;;
13568;SDS011;6856;51.460;7.158;2022-09-24T07:35:47;9.30;;;6.63;;
13568;SDS011;6856;51.460;7.158;2022-09-24T07:38:21;8.90;;;6.53;;
13568;SDS011;6856;51.460;7.158;2022-09-24T07:40:55;7.73;;;6.73;;
13568;SDS011;6856;51.460;7.158;2022-09-24T07:43:31;8.30;;;6.00;;
13568;SDS011;6856;51.460;7.158;2022-09-24T07:46:04;8.70;;;6.90;;
13568;SDS011;6856;51.460;7.158;2022-09-24T07:51:41;10.67;;;7.00;;
13568;SDS011;6856;51.460;7.158;2022-09-24T07:54:15;9.17;;;7.33;;
13568;SDS011;6856;51.460;7.158;2022-09-24T07:56:48;10.30;;;7.80;;
13568;SDS011;6856;51.460;7.158;2022-09-24T07:59:23;8.80;;;6.90;;
13568;SDS011;6856;51.460;7.158;2022-09-24T08:01:56;10.47;;;8.43;;
13568;SDS011;6856;51.460;7.158;2022-09-24T08:04:30;9.13;;;6.90;;
13568;SDS011;6856;51.460;7.158;2022-09-24T08:07:03;9.10;;;7.43;;
13568;SDS011;6856;51.460;7.158;2022-09-24T08:09:36;11.13;;;8.07;;
13568;SDS011;6856;51.460;7.158;2022-09-24T08:12:10;8.67;;;7.00;;
13568;SDS011;6856;51.460;7.158;2022-09-24T08:14:44;8.63;;;7.13;;
13568;SDS011;6856;51.460;7.158;2022-09-24T08:17:18;8.67;;;6.23;;
13568;SDS011;6856;51.460;7.158;2022-09-24T08:19:51;9.10;;;6.87;;
13568;SDS011;6856;51.460;7.158;2022-09-24T08:22:27;10.93;;;7.50;;
13568;SDS011;6856;51.460;7.158;2022-09-24T08:25:03;9.93;;;7.57;;
13568;SDS011;6856;51.460;7.158;2022-09-24T08:27:46;10.37;;;7.87;;
13568;SDS011;6856;51.460;7.158;2022-09-24T08:30:20;8.90;;;6.97;;
13568;SDS011;6856;51.460;7.158;2022-09-24T08:32:54;9.20;;;7.23;;
13568;SDS011;6856;51.460;7.158;2022-09-24T08:35:29;9.60;;;7.60;;
13568;SDS011;6856;51.460;7.158;2022-09-24T08:38:02;9.20;;;7.37;;
13568;SDS011;6856;51.460;7.158;2022-09-24T08:40:42;10.03;;;7.97;;
13568;SDS011;6856;51.460;7.158;2022-09-24T08:43:23;8.40;;;6.50;;
13568;SDS011;6856;51.460;7.158;2022-09-24T08:46:20;15.40;;;7.27;;
13568;SDS011;6856;51.460;7.158;2022-09-24T08:49:19;9.00;;;7.17;;
13568;SDS011;6856;51.460;7.158;2022-09-24T08:52:00;8.57;;;6.60;;
13568;SDS011;6856;51.460;7.158;2022-09-24T08:54:46;9.13;;;6.93;;
13568;SDS011;6856;51.460;7.158;2022-09-24T08:57:24;8.33;;;6.90;;
13568;SDS011;6856;51.460;7.158;2022-09-24T08:59:59;8.17;;;7.07;;
13568;SDS011;6856;51.460;7.158;2022-09-24T09:02:36;10.57;;;7.50;;
13568;SDS011;6856;51.460;7.158;2022-09-24T09:05:20;9.30;;;6.93;;
13568;SDS011;6856;51.460;7.158;2022-09-24T09:08:07;8.03;;;6.60;;
13568;SDS011;6856;51.460;7.158;2022-09-24T09:11:13;9.07;;;6.40;;
13568;SDS011;6856;51.460;7.158;2022-09-24T09:13:55;8.80;;;6.73;;
13568;SDS011;6856;51.460;7.158;2022-09-24T09:16:38;8.53;;;6.57;;
13568;SDS011;6856;51.460;7.158;2022-09-24T09:19:22;10.23;;;7.07;;
13568;SDS011;6856;51.460;7.158;2022-09-24T09:22:00;8.80;;;6.70;;
13568;SDS011;6856;51.460;7.158;2022-09-24T09:24:43;10.50;;;6.67;;
13568;SDS011;6856;51.460;7.158;2022-09-24T09:27:20;8.50;;;6.23;;
13568;SDS011;6856;51.460;7.158;2022-09-24T09:29:55;8.43;;;6.03;;
13568;SDS011;6856;51.460;7.158;2022-09-24T09:32:34;6.93;;;5.67;;
13568;SDS011;6856;51.460;7.158;2022-09-24T09:35:30;8.23;;;6.23;;
13568;SDS011;6856;51.460;7.158;2022-09-24T09:38:14;7.43;;;6.10;;
13568;SDS011;6856;51.460;7.158;2022-09-24T09:40:58;8.30;;;6.13;;
13568;SDS011;6856;51.460;7.158;2022-09-24T09:43:39;7.50;;;5.93;;
13568;SDS011;6856;51.460;7.158;2022-09-24T09:46:13;7.20;;;5.50;;
13568;SDS011;6856;51.460;7.158;2022-09-24T09:48:55;8.40;;;5.77;;
13568;SDS011;6856;51.460;7.158;2022-09-24T09:51:39;6.80;;;5.20;;
13568;SDS011;6856;51.460;7.158;2022-09-24T09:54:15;6.17;;;5.07;;
13568;SDS011;6856;51.460;7.158;2022-09-24T09:56:48;6.80;;;4.90;;
13568;SDS011;6856;51.460;7.158;2022-09-24T09:59:22;6.13;;;5.03;;
13568;SDS011;6856;51.460;7.158;2022-09-24T22:17:40;8.90;;;6.63;;
13568;SDS011;6856;51.460;7.158;2022-09-24T22:20:13;8.13;;;7.07;;
13568;SDS011;6856;51.460;7.158;2022-09-24T22:22:46;7.60;;;6.80;;
13568;SDS011;6856;51.460;7.158;2022-09-24T22:25:20;9.67;;;7.27;;
13568;SDS011;6856;51.460;7.158;2022-09-24T22:27:54;9.03;;;7.37;;
13568;SDS011;6856;51.460;7.158;2022-09-24T22:30:27;9.00;;;7.17;;
13568;SDS011;6856;51.460;7.158;2022-09-24T22:33:02;9.03;;;7.17;;
13568;SDS011;6856;51.460;7.158;2022-09-24T22:35:36;8.27;;;6.50;;
13568;SDS011;6856;51.460;7.158;2022-09-24T22:38:20;8.40;;;6.77;;
13568;SDS011;6856;51.460;7.158;2022-09-24T22:40:54;9.00;;;7.80;;
13568;SDS011;6856;51.460;7.158;2022-09-24T22:43:27;8.57;;;7.67;;
13568;SDS011;6856;51.460;7.158;2022-09-24T22:46:02;9.67;;;7.07;;
13568;SDS011;6856;51.460;7.158;2022-09-24T22:48:39;9.20;;;7.80;;
13568;SDS011;6856;51.460;7.158;2022-09-24T22:51:12;8.13;;;6.80;;
13568;SDS011;6856;51.460;7.158;2022-09-24T22:53:46;9.30;;;7.83;;
13568;SDS011;6856;51.460;7.158;2022-09-24T22:56:20;10.30;;;8.60;;
13568;SDS011;6856;51.460;7.158;2022-09-24T22:58:57;11.30;;;9.00;;
13568;SDS011;6856;51.460;7.158;2022-09-24T23:01:32;9.70;;;7.40;;
13568;SDS011;6856;51.460;7.158;2022-09-24T23:04:11;9.67;;;7.87;;
13568;SDS011;6856;51.460;7.158;2022-09-24T23:06:45;10.10;;;8.17;;
13568;SDS011;6856;51.460;7.158;2022-09-24T23:09:18;11.57;;;8.70;;
13568;SDS011;6856;51.460;7.158;2022-09-24T23:11:52;9.67;;;7.33;;
13568;SDS011;6856;51.460;7.158;2022-09-24T23:14:26;9.90;;;6.90;;
13568;SDS011;6856;51.460;7.158;2022-09-24T23:17:00;9.07;;;6.00;;
13568;SDS011;6856;51.460;7.158;2022-09-24T23:19:34;9.00;;;6.73;;
13568;SDS011;6856;51.460;7.158;2022-09-24T23:22:20;7.50;;;5.63;;
13568;SDS011;6856;51.460;7.158;2022-09-24T23:24:54;6.43;;;4.90;;
13568;SDS011;6856;51.460;7.158;2022-09-24T23:27:27;7.97;;;5.13;;
13568;SDS011;6856;51.460;7.158;2022-09-24T23:30:02;6.17;;;4.87;;
13568;SDS011;6856;51.460;7.158;2022-09-24T23:32:37;9.67;;;5.77;;
13568;SDS011;6856;51.460;7.158;2022-09-24T23:35:11;8.63;;;5.90;;
13568;SDS011;6856;51.460;7.158;2022-09-24T23:37:45;7.73;;;5.33;;
13568;SDS011;6856;51.460;7.158;2022-09-24T23:40:19;11.90;;;6.27;;
13568;SDS011;6856;51.460;7.158;2022-09-24T23:42:53;9.30;;;6.60;;
13568;SDS011;6856;51.460;7.158;2022-09-24T23:45:27;10.07;;;6.30;;
13568;SDS011;6856;51.460;7.158;2022-09-24T23:48:00;7.77;;;5.73;;
13568;SDS011;6856;51.460;7.158;2022-09-24T23:50:35;7.03;;;5.23;;
13568;SDS011;6856;51.460;7.158;2022-09-24T23:53:08;7.77;;;5.30;;
13568;SDS011;6856;51.460;7.158;2022-09-24T23:55:43;7.43;;;5.97;;
13568;SDS011;6856;51.460;7.158;2022-09-24T23:58:20;8.47;;;6.47;;
